Terminal Aerodrome Forecast
Issued by NWS

Home | Current Version | Previous Version | Text Only | Print | Product List | Glossary On
Versions: 1 2 3 4 5 6 7 8 9 10 11 12 13 14 15 16 17 18 19 20 21
290
FTUS41 KOKX 121734
TAFSWF
TAF
KSWF 121734Z 1218/1324 23007KT P6SM BKN150
     FM130000 24004KT P6SM SCT025 BKN050
     FM130500 26007KT P6SM SCT015 BKN035 PROB30 1305/1308 2SM -SHSN
      BKN015
     FM130800 28012G20KT P6SM SCT035 BKN070
     FM131100 30023G32KT P6SM SCT050 SCT100
      AMD NOT SKED=

USA.gov is the U.S. government's official web portal to all federal, state and local government web resources and services.